createdAt,value
2018-02-11T00:01:12.373Z,38.61
2018-02-11T00:03:38.221Z,38.49
2018-02-11T00:06:04.027Z,38.56
2018-02-11T00:08:29.837Z,38.70
2018-02-11T00:10:55.677Z,38.21
2018-02-11T00:13:21.489Z,38.45
2018-02-11T00:15:47.392Z,38.39
2018-02-11T00:18:13.198Z,38.81
2018-02-11T00:20:39.953Z,38.08
2018-02-11T00:23:08.714Z,38.22
2018-02-11T00:25:34.526Z,38.70
2018-02-11T00:28:00.338Z,39.04
2018-02-11T00:30:26.183Z,38.96
2018-02-11T00:32:51.993Z,38.88
2018-02-11T00:35:17.834Z,39.29
2018-02-11T00:37:49.806Z,39.13
2018-02-11T00:40:15.685Z,38.83
2018-02-11T00:42:41.493Z,39.24
2018-02-11T00:45:07.306Z,39.09
2018-02-11T00:47:33.109Z,39.09
2018-02-11T00:49:58.914Z,38.96
2018-02-11T00:52:24.778Z,38.61
2018-02-11T00:54:50.588Z,38.64
2018-02-11T00:57:16.393Z,38.92
2018-02-11T00:59:42.342Z,39.12
2018-02-11T01:02:08.150Z,38.86
2018-02-11T01:04:33.953Z,38.70
2018-02-11T01:06:59.762Z,38.72
2018-02-11T01:09:25.629Z,38.46
2018-02-11T01:11:51.557Z,38.30
2018-02-11T01:14:17.365Z,38.44
2018-02-11T01:16:43.171Z,38.65
2018-02-11T01:19:08.982Z,38.62
2018-02-11T01:21:34.784Z,38.55
2018-02-11T01:24:00.744Z,38.35
2018-02-11T01:26:26.553Z,38.49
2018-02-11T01:28:52.780Z,38.71
2018-02-11T01:31:18.595Z,38.85
2018-02-11T01:33:44.405Z,38.55
2018-02-11T01:36:10.357Z,38.20
2018-02-11T01:38:36.165Z,38.24
2018-02-11T01:41:01.973Z,38.07
2018-02-11T01:43:27.778Z,38.40
2018-02-11T01:45:53.582Z,38.41
2018-02-11T01:48:19.553Z,38.31
2018-02-11T01:50:45.407Z,38.38
2018-02-11T01:53:11.216Z,38.26
2018-02-11T01:55:37.026Z,38.39
2018-02-11T01:58:02.834Z,38.66
2018-02-11T02:00:28.752Z,38.65
2018-02-11T02:02:54.562Z,38.56
2018-02-11T02:05:20.369Z,38.23
2018-02-11T02:07:46.226Z,38.38
2018-02-11T02:10:12.030Z,38.42
2018-02-11T02:12:37.957Z,38.89
2018-02-11T02:15:03.770Z,38.51
2018-02-11T02:17:29.573Z,38.40
2018-02-11T02:19:55.382Z,38.93
2018-02-11T02:22:21.194Z,38.95
2018-02-11T02:24:47.161Z,39.35
2018-02-11T02:27:12.962Z,39.74
2018-02-11T02:29:38.769Z,39.69
2018-02-11T02:32:04.588Z,39.00
2018-02-11T02:34:30.427Z,39.50
2018-02-11T02:36:56.371Z,39.22
2018-02-11T02:39:22.181Z,39.81
2018-02-11T02:41:48.022Z,39.38
2018-02-11T02:44:13.838Z,39.54
2018-02-11T02:46:39.682Z,39.75
2018-02-11T02:49:05.662Z,39.47
2018-02-11T02:51:31.506Z,39.27
2018-02-11T02:53:57.338Z,39.43
2018-02-11T02:56:23.151Z,38.99
2018-02-11T02:58:48.958Z,39.02
2018-02-11T03:01:14.918Z,38.79
2018-02-11T03:03:40.721Z,38.67
2018-02-11T03:06:06.530Z,38.60
2018-02-11T03:08:32.389Z,38.82
2018-02-11T03:10:58.210Z,38.89
2018-02-11T03:13:24.056Z,38.84
2018-02-11T03:15:49.861Z,38.70
2018-02-11T03:18:15.697Z,38.76
2018-02-11T03:20:41.504Z,38.79
2018-02-11T03:23:07.342Z,39.06
2018-02-11T03:25:33.141Z,38.74
2018-02-11T03:27:58.981Z,38.90
2018-02-11T03:30:24.794Z,39.29
2018-02-11T03:32:50.594Z,38.68
2018-02-11T03:35:16.401Z,38.69
2018-02-11T03:37:42.203Z,38.57
2018-02-11T03:40:08.009Z,38.85
2018-02-11T03:42:33.815Z,38.81
2018-02-11T03:44:59.637Z,38.38
2018-02-11T03:47:25.445Z,38.34
2018-02-11T03:49:51.325Z,38.55
2018-02-11T03:52:17.166Z,38.52
2018-02-11T03:54:42.974Z,39.01
2018-02-11T03:57:08.811Z,38.60
2018-02-11T03:59:34.613Z,38.38
2018-02-11T04:02:00.457Z,38.30
2018-02-11T04:04:26.259Z,38.53
2018-02-11T04:06:52.069Z,38.37
2018-02-11T04:09:17.869Z,38.66
2018-02-11T04:11:43.681Z,38.55
2018-02-11T04:14:09.490Z,38.51
2018-02-11T04:16:35.298Z,38.63
2018-02-11T04:19:01.105Z,38.81
2018-02-11T04:21:26.908Z,38.92
2018-02-11T04:23:52.714Z,39.08
2018-02-11T04:26:18.518Z,39.05
2018-02-11T04:28:44.329Z,38.84
2018-02-11T04:31:11.093Z,39.31
2018-02-11T04:33:36.892Z,38.93
2018-02-11T04:36:02.701Z,38.96
2018-02-11T04:38:28.602Z,38.56
2018-02-11T04:40:54.406Z,38.73
2018-02-11T04:43:20.215Z,38.80
2018-02-11T04:45:46.054Z,38.65
2018-02-11T04:48:11.867Z,38.52
2018-02-11T04:50:37.678Z,38.74
2018-02-11T04:53:03.486Z,38.55
2018-02-11T04:55:29.289Z,38.65
2018-02-11T04:57:55.097Z,38.52
2018-02-11T05:00:20.910Z,38.75
2018-02-11T05:02:46.758Z,38.36
2018-02-11T05:05:12.566Z,38.70
2018-02-11T05:07:38.369Z,38.54
2018-02-11T05:10:04.173Z,38.93
2018-02-11T05:12:29.978Z,38.77
2018-02-11T05:14:55.785Z,38.67
2018-02-11T05:17:21.593Z,38.44
2018-02-11T05:19:47.399Z,38.62
2018-02-11T05:22:13.203Z,38.78
2018-02-11T05:24:39.041Z,38.43
2018-02-11T05:27:05.866Z,38.88
2018-02-11T05:29:31.675Z,38.59
2018-02-11T05:31:57.477Z,38.69
2018-02-11T05:34:23.281Z,38.68
2018-02-11T05:36:49.093Z,38.75
2018-02-11T05:39:14.898Z,38.80
2018-02-11T05:41:40.706Z,38.55
2018-02-11T05:44:06.550Z,38.64
2018-02-11T05:46:32.429Z,38.60
2018-02-11T05:48:58.235Z,38.61
2018-02-11T05:51:24.046Z,38.81
2018-02-11T05:53:49.849Z,38.92
2018-02-11T05:56:15.695Z,38.64
2018-02-11T05:58:41.497Z,38.74
2018-02-11T06:01:07.297Z,38.44
2018-02-11T06:03:33.101Z,38.54
2018-02-11T06:05:58.902Z,39.15
2018-02-11T06:08:24.716Z,38.78
2018-02-11T06:10:50.518Z,38.34
2018-02-11T06:13:16.374Z,38.99
2018-02-11T06:15:42.178Z,38.51
2018-02-11T06:18:07.975Z,39.14
2018-02-11T06:20:33.781Z,39.05
2018-02-11T06:22:59.590Z,38.79
2018-02-11T06:25:25.393Z,38.90
2018-02-11T06:27:51.202Z,38.85
2018-02-11T06:30:17.082Z,38.93
2018-02-11T06:32:42.881Z,38.83
2018-02-11T06:35:08.718Z,39.24
2018-02-11T06:37:34.525Z,38.68
2018-02-11T06:40:00.366Z,38.72
2018-02-11T06:42:26.203Z,38.73
2018-02-11T06:44:52.008Z,38.76
2018-02-11T06:47:17.854Z,38.91
2018-02-11T06:49:43.706Z,38.92
2018-02-11T06:52:09.514Z,38.58
2018-02-11T06:54:35.325Z,38.70
2018-02-11T06:57:01.133Z,38.67
2018-02-11T06:59:26.946Z,38.87
2018-02-11T07:01:52.794Z,38.81
2018-02-11T07:04:18.594Z,39.09
2018-02-11T07:06:44.446Z,38.67
2018-02-11T07:09:10.253Z,38.89
2018-02-11T07:11:36.053Z,38.73
2018-02-11T07:14:01.857Z,38.95
2018-02-11T07:16:27.668Z,38.80
2018-02-11T07:18:53.474Z,38.89
2018-02-11T07:21:19.273Z,38.80
2018-02-11T07:23:45.114Z,38.96
2018-02-11T07:26:10.922Z,38.93
2018-02-11T07:28:36.767Z,38.90
2018-02-11T07:31:02.565Z,38.64
2018-02-11T07:33:28.425Z,38.31
2018-02-11T07:35:54.225Z,38.47
2018-02-11T07:38:20.034Z,38.45
2018-02-11T07:40:45.849Z,38.48
2018-02-11T07:43:11.685Z,38.48
2018-02-11T07:45:37.497Z,38.77
2018-02-11T07:48:03.381Z,38.62
2018-02-11T07:50:29.189Z,38.26
2018-02-11T07:52:55.078Z,38.04
2018-02-11T07:55:20.998Z,38.35
2018-02-11T07:57:46.845Z,38.22
2018-02-11T08:00:12.650Z,38.11
2018-02-11T08:02:38.450Z,38.12
2018-02-11T08:05:04.263Z,38.29
2018-02-11T08:07:30.062Z,37.74
2018-02-11T08:09:56.024Z,37.88
2018-02-11T08:12:21.842Z,38.21
2018-02-11T08:14:47.762Z,37.79
2018-02-11T08:17:13.572Z,38.10
2018-02-11T08:19:39.393Z,38.18
2018-02-11T08:22:05.210Z,38.20
2018-02-11T08:24:31.178Z,37.89
2018-02-11T08:26:56.989Z,37.65
2018-02-11T08:29:22.805Z,37.61
2018-02-11T08:31:48.713Z,37.79
2018-02-11T08:34:14.526Z,37.70
2018-02-11T08:36:40.340Z,37.81
2018-02-11T08:39:06.154Z,38.24
2018-02-11T08:41:31.973Z,38.24
2018-02-11T08:43:57.792Z,37.49
2018-02-11T08:46:23.601Z,37.67
2018-02-11T08:48:49.409Z,37.82
2018-02-11T08:51:15.274Z,37.72
2018-02-11T08:53:41.085Z,37.63
2018-02-11T08:56:06.910Z,37.56
2018-02-11T08:58:32.719Z,37.59
2018-02-11T09:00:58.654Z,37.48
2018-02-11T09:03:24.538Z,37.38
2018-02-11T09:05:50.542Z,37.37
2018-02-11T09:08:16.527Z,37.67
2018-02-11T09:10:42.580Z,37.56
2018-02-11T09:13:08.394Z,37.27
2018-02-11T09:15:34.202Z,37.32
2018-02-11T09:18:00.222Z,37.37
2018-02-11T09:20:26.181Z,37.43
2018-02-11T09:22:52.046Z,37.63
2018-02-11T09:25:17.893Z,37.30
2018-02-11T09:27:43.716Z,37.21
2018-02-11T09:30:12.578Z,36.91
2018-02-11T09:32:39.789Z,37.29
2018-02-11T09:35:06.345Z,37.26
2018-02-11T09:37:32.841Z,37.28
2018-02-11T09:39:58.661Z,36.71
2018-02-11T09:42:24.509Z,37.23
2018-02-11T09:44:50.369Z,37.15
2018-02-11T09:47:16.174Z,36.63
2018-02-11T09:49:41.984Z,36.57
2018-02-11T09:52:07.798Z,36.78
2018-02-11T09:54:33.638Z,36.70
2018-02-11T09:56:59.590Z,36.66
2018-02-11T09:59:25.490Z,36.76
2018-02-11T10:01:51.415Z,36.76
2018-02-11T10:04:17.215Z,36.44
2018-02-11T10:06:43.177Z,36.63
2018-02-11T10:09:15.971Z,36.80
2018-02-11T10:11:41.791Z,36.60
2018-02-11T10:14:07.622Z,36.56
2018-02-11T10:16:33.620Z,36.63
2018-02-11T10:18:59.517Z,36.82
2018-02-11T10:21:25.452Z,36.45
2018-02-11T10:23:51.373Z,36.32
2018-02-11T10:26:17.177Z,36.22
2018-02-11T10:28:43.107Z,36.27
2018-02-11T10:31:08.919Z,36.25
2018-02-11T10:33:34.805Z,36.07
2018-02-11T10:36:00.614Z,36.07
2018-02-11T10:38:26.425Z,36.47
2018-02-11T10:40:52.363Z,36.59
2018-02-11T10:43:18.165Z,36.14
2018-02-11T10:45:44.928Z,36.30
2018-02-11T10:48:16.404Z,36.26
2018-02-11T10:50:43.009Z,36.45
2018-02-11T10:53:08.978Z,36.43
2018-02-11T10:55:37.164Z,36.26
2018-02-11T10:58:05.086Z,36.25
2018-02-11T11:00:33.059Z,35.80
2018-02-11T11:02:58.899Z,35.87
2018-02-11T11:05:24.705Z,36.22
2018-02-11T11:07:51.635Z,36.33
2018-02-11T11:10:17.443Z,35.93
2018-02-11T11:12:43.249Z,35.90
2018-02-11T11:15:09.161Z,36.17
2018-02-11T11:17:35.182Z,36.00
2018-02-11T11:20:01.050Z,35.79
2018-02-11T11:22:26.870Z,36.08
2018-02-11T11:24:52.709Z,35.67
2018-02-11T11:27:18.518Z,35.92
2018-02-11T11:29:44.478Z,35.89
2018-02-11T11:32:10.394Z,36.25
2018-02-11T11:34:36.201Z,36.05
2018-02-11T11:37:02.139Z,35.88
2018-02-11T11:39:27.949Z,36.24
2018-02-11T11:41:53.760Z,36.35
2018-02-11T11:44:19.569Z,36.20
2018-02-11T11:46:45.383Z,36.47
2018-02-11T11:49:11.185Z,36.12
2018-02-11T11:51:36.995Z,36.20
2018-02-11T11:54:02.973Z,35.96
2018-02-11T11:56:28.782Z,37.00
2018-02-11T11:58:54.716Z,37.23
2018-02-11T12:01:20.558Z,37.37
2018-02-11T12:03:46.465Z,37.53
2018-02-11T12:06:13.406Z,36.82
2018-02-11T12:08:39.248Z,37.04
2018-02-11T12:11:05.062Z,36.88
2018-02-11T12:13:30.875Z,36.64
2018-02-11T12:15:56.690Z,36.73
2018-02-11T12:18:22.497Z,36.95
2018-02-11T12:20:48.315Z,37.18
2018-02-11T12:23:14.123Z,37.12
2018-02-11T12:25:39.934Z,37.38
2018-02-11T12:28:05.742Z,37.16
2018-02-11T12:30:31.917Z,36.66
2018-02-11T12:32:57.730Z,37.29
2018-02-11T12:35:23.578Z,37.90
2018-02-11T12:37:49.478Z,37.19
2018-02-11T12:40:15.285Z,37.02
2018-02-11T12:42:41.097Z,36.82
2018-02-11T12:45:06.901Z,36.86
2018-02-11T12:47:32.718Z,36.50
2018-02-11T12:49:58.629Z,36.98
2018-02-11T12:52:24.617Z,37.07
2018-02-11T12:54:50.465Z,37.20
2018-02-11T12:57:16.278Z,37.13
2018-02-11T12:59:42.121Z,37.29
2018-02-11T13:02:07.937Z,37.95
2018-02-11T13:04:33.784Z,38.30
2018-02-11T13:06:59.649Z,38.43
2018-02-11T13:09:25.654Z,38.45
2018-02-11T13:11:51.470Z,38.34
2018-02-11T13:14:17.344Z,38.42
2018-02-11T13:16:43.153Z,38.94
2018-02-11T13:19:08.963Z,39.19
2018-02-11T13:21:34.814Z,39.28
2018-02-11T13:24:00.769Z,38.98
2018-02-11T13:26:26.710Z,39.07
2018-02-11T13:28:52.526Z,39.63
2018-02-11T13:31:18.334Z,39.31
2018-02-11T13:33:44.138Z,39.06
2018-02-11T13:36:10.008Z,39.31
2018-02-11T13:38:35.817Z,39.15
2018-02-11T13:41:01.633Z,39.22
2018-02-11T13:43:29.578Z,39.58
2018-02-11T13:45:55.389Z,39.46
2018-02-11T13:48:21.314Z,39.49
2018-02-11T13:50:47.122Z,39.66
2018-02-11T13:53:13.102Z,39.68
2018-02-11T13:55:38.922Z,40.37
2018-02-11T13:58:04.738Z,40.16
2018-02-11T14:00:30.547Z,40.12
2018-02-11T14:02:56.367Z,39.84
2018-02-11T14:05:22.193Z,39.95
2018-02-11T14:07:48.043Z,39.83
2018-02-11T14:10:13.854Z,39.62
2018-02-11T14:12:39.814Z,39.73
2018-02-11T14:15:05.623Z,39.88
2018-02-11T14:17:31.431Z,40.34
2018-02-11T14:19:57.273Z,39.95
2018-02-11T14:22:23.087Z,40.26
2018-02-11T14:24:48.901Z,40.21
2018-02-11T14:27:14.710Z,40.37
2018-02-11T14:29:40.556Z,40.32
2018-02-11T14:32:06.366Z,40.96
2018-02-11T14:34:32.214Z,40.29
2018-02-11T14:36:58.062Z,40.17
2018-02-11T14:39:23.973Z,40.40
2018-02-11T14:41:49.785Z,40.23
2018-02-11T14:44:15.642Z,40.39
2018-02-11T14:46:41.451Z,40.41
2018-02-11T14:49:07.267Z,40.68
2018-02-11T14:51:33.074Z,40.80
2018-02-11T14:53:59.663Z,40.67
2018-02-11T14:56:25.576Z,40.71
2018-02-11T14:58:58.403Z,40.78
2018-02-11T15:01:24.215Z,40.77
2018-02-11T15:03:50.025Z,40.93
2018-02-11T15:06:15.829Z,41.17
2018-02-11T15:08:42.235Z,40.61
2018-02-11T15:11:08.073Z,41.18
2018-02-11T15:13:33.928Z,41.25
2018-02-11T15:15:59.844Z,41.38
2018-02-11T15:18:25.646Z,41.31
2018-02-11T15:20:52.549Z,41.09
2018-02-11T15:23:18.484Z,41.46
2018-02-11T15:25:44.339Z,40.96
2018-02-11T15:28:10.594Z,41.16
2018-02-11T15:30:36.406Z,40.95
2018-02-11T15:33:02.219Z,41.00
2018-02-11T15:35:28.035Z,41.16
2018-02-11T15:37:53.837Z,41.86
2018-02-11T15:40:19.641Z,42.23
2018-02-11T15:42:45.455Z,41.91
2018-02-11T15:45:11.262Z,41.98
2018-02-11T15:47:37.090Z,41.66
2018-02-11T15:50:02.901Z,41.15
2018-02-11T15:52:28.710Z,41.08
2018-02-11T15:54:54.518Z,41.83
2018-02-11T15:57:20.382Z,41.88
2018-02-11T15:59:46.203Z,41.86
2018-02-11T16:02:12.018Z,41.78
2018-02-11T16:04:37.826Z,41.16
2018-02-11T16:07:03.641Z,41.56
2018-02-11T16:09:29.736Z,41.84
2018-02-11T16:11:55.675Z,42.25
2018-02-11T16:14:22.624Z,41.44
2018-02-11T16:16:49.367Z,41.60
2018-02-11T16:19:15.259Z,41.07
2018-02-11T16:21:41.074Z,41.24
2018-02-11T16:24:20.557Z,41.54
2018-02-11T16:26:49.974Z,41.48
2018-02-11T16:29:17.705Z,41.65
2018-02-11T16:31:44.725Z,41.96
2018-02-11T16:34:10.574Z,41.39
2018-02-11T16:36:36.430Z,41.39
2018-02-11T16:39:02.257Z,41.92
2018-02-11T16:41:28.274Z,41.78
2018-02-11T16:43:54.129Z,42.05
2018-02-11T16:46:19.946Z,41.55
2018-02-11T16:48:46.030Z,42.57
2018-02-11T16:51:11.834Z,42.13
2018-02-11T16:53:37.649Z,43.13
2018-02-11T16:56:03.763Z,42.20
2018-02-11T16:58:29.578Z,41.65
2018-02-11T17:00:55.423Z,41.59
2018-02-11T17:03:21.514Z,41.83
2018-02-11T17:05:47.326Z,42.69
2018-02-11T17:08:13.166Z,42.36
2018-02-11T17:10:39.064Z,42.09
2018-02-11T17:13:05.002Z,41.81
2018-02-11T17:15:30.802Z,42.39
2018-02-11T17:17:56.627Z,42.11
2018-02-11T17:20:22.549Z,41.72
2018-02-11T17:22:48.358Z,41.64
2018-02-11T17:25:14.173Z,41.82
2018-02-11T17:27:40.147Z,41.36
2018-02-11T17:30:05.954Z,41.76
2018-02-11T17:32:31.955Z,42.15
2018-02-11T17:34:58.118Z,42.29
2018-02-11T17:37:23.954Z,41.95
2018-02-11T17:39:49.762Z,43.13
2018-02-11T17:42:15.574Z,42.35
2018-02-11T17:44:42.337Z,43.04
2018-02-11T17:47:08.146Z,42.85
2018-02-11T17:49:33.957Z,42.51
2018-02-11T17:51:59.770Z,43.17
2018-02-11T17:54:25.669Z,43.19
2018-02-11T17:56:51.474Z,42.97
2018-02-11T17:59:17.493Z,41.95
2018-02-11T18:01:48.118Z,42.26
2018-02-11T18:04:14.326Z,43.04
2018-02-11T18:06:41.957Z,42.68
2018-02-11T18:09:08.270Z,43.04
2018-02-11T18:11:34.407Z,42.31
2018-02-11T18:14:00.217Z,42.18
2018-02-11T18:16:26.298Z,42.79
2018-02-11T18:18:52.124Z,43.24
2018-02-11T18:21:18.118Z,42.61
2018-02-11T18:23:44.169Z,42.77
2018-02-11T18:26:09.999Z,42.89
2018-02-11T18:28:36.040Z,42.67
2018-02-11T18:31:01.874Z,42.49
2018-02-11T18:33:27.865Z,43.17
2018-02-11T18:35:53.810Z,42.66
2018-02-11T18:38:19.843Z,42.71
2018-02-11T18:40:45.939Z,42.17
2018-02-11T18:43:11.773Z,42.48
2018-02-11T18:45:37.575Z,42.42
2018-02-11T18:48:03.641Z,43.02
2018-02-11T18:50:29.502Z,43.16
2018-02-11T18:52:55.576Z,42.43
2018-02-11T18:55:21.410Z,42.61
2018-02-11T18:57:47.226Z,43.43
2018-02-11T19:00:13.157Z,42.61
2018-02-11T19:02:38.979Z,42.60
2018-02-11T19:05:05.070Z,42.91
2018-02-11T19:07:30.894Z,42.55
2018-02-11T19:09:56.875Z,42.85
2018-02-11T19:12:22.686Z,42.30
2018-02-11T19:14:48.872Z,43.04
2018-02-11T19:17:14.699Z,42.71
2018-02-11T19:19:40.510Z,42.89
2018-02-11T19:22:06.319Z,42.59
2018-02-11T19:24:32.139Z,42.81
2018-02-11T19:26:58.998Z,42.30
2018-02-11T19:29:24.829Z,42.36
2018-02-11T19:31:50.650Z,42.26
2018-02-11T19:34:16.462Z,42.43
2018-02-11T19:36:42.297Z,42.95
2018-02-11T19:39:08.420Z,42.45
2018-02-11T19:41:34.253Z,42.31
2018-02-11T19:44:00.254Z,42.35
2018-02-11T19:46:26.061Z,42.40
2018-02-11T19:48:51.872Z,42.62
2018-02-11T19:51:17.934Z,42.50
2018-02-11T19:53:43.771Z,42.27
2018-02-11T19:56:09.874Z,42.15
2018-02-11T19:58:35.694Z,42.68
2018-02-11T20:01:01.599Z,42.57
2018-02-11T20:03:27.530Z,41.63
2018-02-11T20:05:53.398Z,41.94
2018-02-11T20:08:19.456Z,41.52
2018-02-11T20:10:45.273Z,42.20
2018-02-11T20:13:11.139Z,42.08
2018-02-11T20:15:37.913Z,42.08
2018-02-11T20:18:03.766Z,41.95
2018-02-11T20:20:29.799Z,41.94
2018-02-11T20:22:55.662Z,42.33
2018-02-11T20:25:21.487Z,42.17
2018-02-11T20:27:47.366Z,41.96
2018-02-11T20:30:13.206Z,42.27
2018-02-11T20:32:39.233Z,42.36
2018-02-11T20:35:05.277Z,42.71
2018-02-11T20:37:31.234Z,42.56
2018-02-11T20:39:57.106Z,42.25
2018-02-11T20:42:22.919Z,42.60
2018-02-11T20:44:49.010Z,42.41
2018-02-11T20:47:14.825Z,42.01
2018-02-11T20:49:40.801Z,42.46
2018-02-11T20:52:06.739Z,42.46
2018-02-11T20:54:32.567Z,42.26
2018-02-11T20:56:58.383Z,43.14
2018-02-11T20:59:24.465Z,42.51
2018-02-11T21:01:50.299Z,42.50
2018-02-11T21:04:16.114Z,42.37
2018-02-11T21:06:42.026Z,42.72
2018-02-11T21:09:07.871Z,43.30
2018-02-11T21:11:33.863Z,43.16
2018-02-11T21:13:59.737Z,42.85
2018-02-11T21:16:25.577Z,42.57
2018-02-11T21:18:51.478Z,42.47
2018-02-11T21:21:17.341Z,42.55
2018-02-11T21:23:43.320Z,42.86
2018-02-11T21:26:09.174Z,43.29
2018-02-11T21:28:35.158Z,42.50
2018-02-11T21:31:00.972Z,42.36
2018-02-11T21:33:26.774Z,43.27
2018-02-11T21:35:52.590Z,42.82
2018-02-11T21:38:18.407Z,42.45
2018-02-11T21:40:44.421Z,42.44
2018-02-11T21:43:10.285Z,42.51
2018-02-11T21:45:36.091Z,42.81
2018-02-11T21:48:02.075Z,42.71
2018-02-11T21:50:27.889Z,42.11
2018-02-11T21:52:53.810Z,42.76
2018-02-11T21:55:19.614Z,42.48
2018-02-11T21:57:45.682Z,42.50
2018-02-11T22:00:11.511Z,42.44
2018-02-11T22:02:37.338Z,41.81
2018-02-11T22:05:03.333Z,41.95
2018-02-11T22:07:29.174Z,42.35
2018-02-11T22:09:54.997Z,42.71
2018-02-11T22:12:20.799Z,42.52
2018-02-11T22:14:46.609Z,42.57
2018-02-11T22:17:12.554Z,42.31
2018-02-11T22:19:38.371Z,42.15
2018-02-11T22:22:04.182Z,42.85
2018-02-11T22:24:30.006Z,42.32
2018-02-11T22:26:55.821Z,42.90
2018-02-11T22:29:21.730Z,42.41
2018-02-11T22:31:47.539Z,42.78
2018-02-11T22:34:13.354Z,43.00
2018-02-11T22:36:39.158Z,42.79
2018-02-11T22:39:04.970Z,42.68
2018-02-11T22:41:30.854Z,42.65
2018-02-11T22:43:56.670Z,42.51
2018-02-11T22:46:22.478Z,43.33
2018-02-11T22:48:48.285Z,43.24
2018-02-11T22:51:14.094Z,42.65
2018-02-11T22:53:39.902Z,42.59
2018-02-11T22:56:05.716Z,42.52
2018-02-11T22:58:31.534Z,42.66
2018-02-11T23:00:57.357Z,42.35
2018-02-11T23:03:23.210Z,42.59
2018-02-11T23:05:49.018Z,42.62
2018-02-11T23:08:14.857Z,42.58
2018-02-11T23:10:40.700Z,42.44
2018-02-11T23:13:06.506Z,42.69
2018-02-11T23:15:33.397Z,42.42
2018-02-11T23:17:59.202Z,42.36
2018-02-11T23:20:25.090Z,42.39
2018-02-11T23:22:50.906Z,42.51
2018-02-11T23:25:16.754Z,42.51
2018-02-11T23:27:42.557Z,42.21
2018-02-11T23:30:08.395Z,42.21
2018-02-11T23:32:34.234Z,41.86
2018-02-11T23:35:00.103Z,42.15
2018-02-11T23:37:25.978Z,41.87
2018-02-11T23:39:51.789Z,41.61
2018-02-11T23:42:17.634Z,41.71
2018-02-11T23:44:43.449Z,41.89
2018-02-11T23:47:09.297Z,43.01
2018-02-11T23:49:35.097Z,41.94
2018-02-11T23:52:00.941Z,41.88
2018-02-11T23:54:26.781Z,42.25
2018-02-11T23:56:52.586Z,41.93
2018-02-11T23:59:18.433Z,42.43
